sensor_id;sensor_type;location;lat;lon;timestamp;P1;P2;P0
56495;PMS5003;42804;55.762;38.084;2022-09-09T00:00:54;4.00;2.00;2.00
56495;PMS5003;42804;55.762;38.084;2022-09-09T00:03:24;3.00;2.00;0.75
56495;PMS5003;42804;55.762;38.084;2022-09-09T00:05:56;6.50;5.50;2.00
56495;PMS5003;42804;55.762;38.084;2022-09-09T00:08:30;4.00;4.00;2.00
56495;PMS5003;42804;55.762;38.084;2022-09-09T00:11:02;4.00;4.00;1.75
56495;PMS5003;42804;55.762;38.084;2022-09-09T00:13:33;4.00;4.00;1.50
56495;PMS5003;42804;55.762;38.084;2022-09-09T00:16:04;3.00;3.00;1.50
56495;PMS5003;42804;55.762;38.084;2022-09-09T00:18:37;3.75;2.50;1.00
56495;PMS5003;42804;55.762;38.084;2022-09-09T00:21:11;4.00;4.00;3.00
56495;PMS5003;42804;55.762;38.084;2022-09-09T00:23:43;10.25;4.25;1.50
56495;PMS5003;42804;55.762;38.084;2022-09-09T00:26:14;3.50;3.50;1.75
56495;PMS5003;42804;55.762;38.084;2022-09-09T00:28:48;3.50;2.50;1.00
56495;PMS5003;42804;55.762;38.084;2022-09-09T00:31:19;4.25;2.00;1.00
56495;PMS5003;42804;55.762;38.084;2022-09-09T00:33:48;4.25;4.00;2.00
56495;PMS5003;42804;55.762;38.084;2022-09-09T00:36:17;3.00;1.00;0.00
56495;PMS5003;42804;55.762;38.084;2022-09-09T00:38:47;4.00;3.50;1.50
56495;PMS5003;42804;55.762;38.084;2022-09-09T00:41:19;1.25;0.50;0.00
56495;PMS5003;42804;55.762;38.084;2022-09-09T00:43:55;3.00;2.00;0.75
56495;PMS5003;42804;55.762;38.084;2022-09-09T00:46:39;1.00;1.00;1.00
56495;PMS5003;42804;55.762;38.084;2022-09-09T00:49:13;3.50;3.50;1.25
56495;PMS5003;42804;55.762;38.084;2022-09-09T00:51:46;0.00;0.00;0.00
56495;PMS5003;42804;55.762;38.084;2022-09-09T00:54:25;1.00;1.00;0.00
56495;PMS5003;42804;55.762;38.084;2022-09-09T00:56:58;3.25;1.50;0.75
56495;PMS5003;42804;55.762;38.084;2022-09-09T00:59:34;4.50;2.50;1.00
56495;PMS5003;42804;55.762;38.084;2022-09-09T01:02:12;1.00;1.00;0.00
56495;PMS5003;42804;55.762;38.084;2022-09-09T01:04:43;2.50;1.25;0.00
56495;PMS5003;42804;55.762;38.084;2022-09-09T01:07:13;4.00;2.00;1.00
56495;PMS5003;42804;55.762;38.084;2022-09-09T01:09:51;2.00;2.00;1.00
56495;PMS5003;42804;55.762;38.084;2022-09-09T01:12:24;2.00;1.00;0.25
56495;PMS5003;42804;55.762;38.084;2022-09-09T01:14:58;1.50;1.00;0.00
56495;PMS5003;42804;55.762;38.084;2022-09-09T01:17:31;1.00;0.00;0.00
56495;PMS5003;42804;55.762;38.084;2022-09-09T01:20:10;1.00;1.00;0.25
56495;PMS5003;42804;55.762;38.084;2022-09-09T01:22:48;1.00;1.00;0.25
56495;PMS5003;42804;55.762;38.084;2022-09-09T01:28:22;2.00;2.00;1.00
56495;PMS5003;42804;55.762;38.084;2022-09-09T01:30:59;3.75;3.00;1.00
56495;PMS5003;42804;55.762;38.084;2022-09-09T01:33:34;1.75;1.75;1.00
56495;PMS5003;42804;55.762;38.084;2022-09-09T01:36:03;1.00;1.00;0.00
56495;PMS5003;42804;55.762;38.084;2022-09-09T01:38:41;3.00;1.50;0.50
56495;PMS5003;42804;55.762;38.084;2022-09-09T01:41:10;2.00;2.00;1.00
56495;PMS5003;42804;55.762;38.084;2022-09-09T01:43:47;1.50;1.00;0.00
56495;PMS5003;42804;55.762;38.084;2022-09-09T01:46:15;2.00;2.00;0.00
56495;PMS5003;42804;55.762;38.084;2022-09-09T01:48:44;3.50;1.00;1.00
56495;PMS5003;42804;55.762;38.084;2022-09-09T01:51:14;2.00;1.75;1.00
56495;PMS5003;42804;55.762;38.084;2022-09-09T01:53:42;2.00;2.00;1.00
56495;PMS5003;42804;55.762;38.084;2022-09-09T01:56:15;4.25;1.25;1.00
56495;PMS5003;42804;55.762;38.084;2022-09-09T01:58:52;0.25;0.00;0.00
56495;PMS5003;42804;55.762;38.084;2022-09-09T02:01:27;2.00;1.50;1.00
56495;PMS5003;42804;55.762;38.084;2022-09-09T02:03:59;1.75;1.75;0.75
56495;PMS5003;42804;55.762;38.084;2022-09-09T02:06:33;2.00;1.25;0.00
56495;PMS5003;42804;55.762;38.084;2022-09-09T02:09:24;2.00;1.00;1.00
56495;PMS5003;42804;55.762;38.084;2022-09-09T02:11:55;1.00;1.00;0.00
56495;PMS5003;42804;55.762;38.084;2022-09-09T02:14:37;2.50;1.50;0.50
56495;PMS5003;42804;55.762;38.084;2022-09-09T02:17:09;2.50;2.00;0.50
56495;PMS5003;42804;55.762;38.084;2022-09-09T02:19:59;1.00;1.00;0.00
56495;PMS5003;42804;55.762;38.084;2022-09-09T02:22:39;2.00;2.00;1.00
56495;PMS5003;42804;55.762;38.084;2022-09-09T02:25:12;2.00;1.75;0.00
56495;PMS5003;42804;55.762;38.084;2022-09-09T02:27:43;2.00;1.25;1.00
56495;PMS5003;42804;55.762;38.084;2022-09-09T02:30:15;1.75;1.75;1.00
56495;PMS5003;42804;55.762;38.084;2022-09-09T02:32:50;1.00;0.50;0.00
56495;PMS5003;42804;55.762;38.084;2022-09-09T02:35:21;0.75;0.75;0.00
56495;PMS5003;42804;55.762;38.084;2022-09-09T02:37:53;1.00;1.00;0.00
56495;PMS5003;42804;55.762;38.084;2022-09-09T02:40:23;1.00;1.00;0.00
56495;PMS5003;42804;55.762;38.084;2022-09-09T02:42:58;0.50;0.50;0.00
56495;PMS5003;42804;55.762;38.084;2022-09-09T02:45:34;1.25;1.00;0.25
56495;PMS5003;42804;55.762;38.084;2022-09-09T02:48:06;2.00;1.25;1.00
56495;PMS5003;42804;55.762;38.084;2022-09-09T02:50:38;1.00;1.00;0.25
56495;PMS5003;42804;55.762;38.084;2022-09-09T02:53:13;1.00;1.00;0.00
56495;PMS5003;42804;55.762;38.084;2022-09-09T02:55:46;3.75;3.00;1.00
56495;PMS5003;42804;55.762;38.084;2022-09-09T02:58:18;0.00;0.00;0.00
56495;PMS5003;42804;55.762;38.084;2022-09-09T03:00:57;1.00;1.00;0.75
56495;PMS5003;42804;55.762;38.084;2022-09-09T03:03:28;1.33;1.00;0.00
56495;PMS5003;42804;55.762;38.084;2022-09-09T03:05:59;2.00;1.00;1.00
56495;PMS5003;42804;55.762;38.084;2022-09-09T03:08:28;0.25;0.25;0.00
56495;PMS5003;42804;55.762;38.084;2022-09-09T03:10:58;0.75;0.75;0.00
56495;PMS5003;42804;55.762;38.084;2022-09-09T03:13:34;1.00;1.00;0.00
56495;PMS5003;42804;55.762;38.084;2022-09-09T03:16:04;0.75;0.75;0.00
56495;PMS5003;42804;55.762;38.084;2022-09-09T03:18:39;4.00;2.00;1.00
56495;PMS5003;42804;55.762;38.084;2022-09-09T03:21:07;2.00;1.00;0.25
56495;PMS5003;42804;55.762;38.084;2022-09-09T03:23:37;0.75;0.75;0.25
56495;PMS5003;42804;55.762;38.084;2022-09-09T03:26:05;0.00;0.00;0.00
56495;PMS5003;42804;55.762;38.084;2022-09-09T03:28:42;2.00;1.00;0.00
56495;PMS5003;42804;55.762;38.084;2022-09-09T03:31:16;0.50;0.25;0.00
56495;PMS5003;42804;55.762;38.084;2022-09-09T03:33:46;1.50;0.75;0.25
56495;PMS5003;42804;55.762;38.084;2022-09-09T03:36:16;1.00;1.00;1.00
56495;PMS5003;42804;55.762;38.084;2022-09-09T03:38:46;0.50;0.50;0.25
56495;PMS5003;42804;55.762;38.084;2022-09-09T03:41:14;1.50;1.50;0.25
56495;PMS5003;42804;55.762;38.084;2022-09-09T03:43:43;1.75;1.00;1.00
56495;PMS5003;42804;55.762;38.084;2022-09-09T03:46:11;1.50;1.00;0.00
56495;PMS5003;42804;55.762;38.084;2022-09-09T03:48:43;2.00;2.00;0.50
56495;PMS5003;42804;55.762;38.084;2022-09-09T03:51:12;2.00;1.00;0.50
56495;PMS5003;42804;55.762;38.084;2022-09-09T03:53:42;1.00;1.00;0.00
56495;PMS5003;42804;55.762;38.084;2022-09-09T03:56:11;0.75;0.00;0.00
56495;PMS5003;42804;55.762;38.084;2022-09-09T03:58:39;2.00;1.75;0.75
56495;PMS5003;42804;55.762;38.084;2022-09-09T04:01:10;4.25;2.00;1.00
56495;PMS5003;42804;55.762;38.084;2022-09-09T04:03:42;1.00;0.50;0.00
56495;PMS5003;42804;55.762;38.084;2022-09-09T04:06:12;1.67;1.00;0.00
56495;PMS5003;42804;55.762;38.084;2022-09-09T04:08:44;1.25;1.00;0.00
56495;PMS5003;42804;55.762;38.084;2022-09-09T04:11:15;1.00;1.00;1.00
56495;PMS5003;42804;55.762;38.084;2022-09-09T04:13:46;1.25;1.00;0.25
56495;PMS5003;42804;55.762;38.084;2022-09-09T04:16:15;4.00;1.00;0.50
56495;PMS5003;42804;55.762;38.084;2022-09-09T04:18:44;1.50;1.50;0.75
56495;PMS5003;42804;55.762;38.084;2022-09-09T04:21:16;2.00;2.00;1.00
56495;PMS5003;42804;55.762;38.084;2022-09-09T04:23:46;1.75;1.25;0.25
56495;PMS5003;42804;55.762;38.084;2022-09-09T04:26:14;0.75;0.50;0.00
56495;PMS5003;42804;55.762;38.084;2022-09-09T04:28:44;1.50;1.50;0.50
56495;PMS5003;42804;55.762;38.084;2022-09-09T04:31:18;1.25;1.00;0.00
56495;PMS5003;42804;55.762;38.084;2022-09-09T04:33:49;1.75;1.00;1.00
56495;PMS5003;42804;55.762;38.084;2022-09-09T04:36:19;1.75;1.00;0.00
56495;PMS5003;42804;55.762;38.084;2022-09-09T04:38:49;1.00;0.00;0.00
56495;PMS5003;42804;55.762;38.084;2022-09-09T04:41:18;4.00;4.00;1.00
56495;PMS5003;42804;55.762;38.084;2022-09-09T04:43:51;2.50;2.00;0.25
56495;PMS5003;42804;55.762;38.084;2022-09-09T04:46:21;1.75;1.75;1.00
56495;PMS5003;42804;55.762;38.084;2022-09-09T04:48:50;1.50;1.50;0.50
56495;PMS5003;42804;55.762;38.084;2022-09-09T04:51:22;0.25;0.25;0.00
56495;PMS5003;42804;55.762;38.084;2022-09-09T04:53:52;1.50;1.25;0.75
56495;PMS5003;42804;55.762;38.084;2022-09-09T04:56:21;4.50;3.50;1.00
56495;PMS5003;42804;55.762;38.084;2022-09-09T04:58:55;4.00;4.00;0.75
56495;PMS5003;42804;55.762;38.084;2022-09-09T05:01:33;2.50;1.75;1.00
56495;PMS5003;42804;55.762;38.084;2022-09-09T05:04:03;3.00;3.00;1.00
56495;PMS5003;42804;55.762;38.084;2022-09-09T05:06:34;4.00;2.00;1.00
56495;PMS5003;42804;55.762;38.084;2022-09-09T05:09:04;3.00;3.00;1.00
56495;PMS5003;42804;55.762;38.084;2022-09-09T05:11:32;1.75;1.50;1.00
56495;PMS5003;42804;55.762;38.084;2022-09-09T05:14:22;3.50;3.50;1.00
56495;PMS5003;42804;55.762;38.084;2022-09-09T05:16:50;1.50;1.50;1.00
56495;PMS5003;42804;55.762;38.084;2022-09-09T05:19:21;2.50;1.50;0.00
56495;PMS5003;42804;55.762;38.084;2022-09-09T05:21:52;1.50;1.50;0.75
56495;PMS5003;42804;55.762;38.084;2022-09-09T05:24:26;4.25;1.75;0.75
56495;PMS5003;42804;55.762;38.084;2022-09-09T05:26:57;0.50;0.50;0.00
56495;PMS5003;42804;55.762;38.084;2022-09-09T05:29:28;1.75;1.75;1.00
56495;PMS5003;42804;55.762;38.084;2022-09-09T05:32:02;1.25;1.00;0.25
56495;PMS5003;42804;55.762;38.084;2022-09-09T05:34:31;1.00;0.50;0.00
56495;PMS5003;42804;55.762;38.084;2022-09-09T05:37:01;1.25;0.50;0.00
56495;PMS5003;42804;55.762;38.084;2022-09-09T05:39:31;1.50;1.00;1.00
56495;PMS5003;42804;55.762;38.084;2022-09-09T05:42:00;2.25;1.50;0.50
56495;PMS5003;42804;55.762;38.084;2022-09-09T05:44:31;1.00;1.00;0.00
56495;PMS5003;42804;55.762;38.084;2022-09-09T05:47:00;1.00;1.00;0.50
56495;PMS5003;42804;55.762;38.084;2022-09-09T05:49:29;1.25;1.25;0.75
56495;PMS5003;42804;55.762;38.084;2022-09-09T05:51:58;2.00;1.25;0.75
56495;PMS5003;42804;55.762;38.084;2022-09-09T05:54:28;0.00;0.00;0.00
56495;PMS5003;42804;55.762;38.084;2022-09-09T05:56:57;1.00;1.00;0.50
56495;PMS5003;42804;55.762;38.084;2022-09-09T05:59:26;1.00;1.00;0.00
56495;PMS5003;42804;55.762;38.084;2022-09-09T06:01:56;0.50;0.50;0.00
56495;PMS5003;42804;55.762;38.084;2022-09-09T06:04:31;2.00;1.50;0.00
56495;PMS5003;42804;55.762;38.084;2022-09-09T06:07:00;1.00;1.00;0.00
56495;PMS5003;42804;55.762;38.084;2022-09-09T06:09:30;1.50;1.00;0.75
56495;PMS5003;42804;55.762;38.084;2022-09-09T06:11:59;1.00;1.00;1.00
56495;PMS5003;42804;55.762;38.084;2022-09-09T06:14:30;1.00;1.00;0.25
56495;PMS5003;42804;55.762;38.084;2022-09-09T06:17:00;1.00;1.00;0.00
56495;PMS5003;42804;55.762;38.084;2022-09-09T06:19:30;1.00;1.00;1.00
56495;PMS5003;42804;55.762;38.084;2022-09-09T06:21:59;1.00;1.00;0.75
56495;PMS5003;42804;55.762;38.084;2022-09-09T06:24:31;1.00;1.00;1.00
56495;PMS5003;42804;55.762;38.084;2022-09-09T06:27:01;1.25;1.00;0.00
56495;PMS5003;42804;55.762;38.084;2022-09-09T06:29:33;0.25;0.00;0.00
56495;PMS5003;42804;55.762;38.084;2022-09-09T06:32:01;0.50;0.50;0.00
56495;PMS5003;42804;55.762;38.084;2022-09-09T06:34:30;0.00;0.00;0.00
56495;PMS5003;42804;55.762;38.084;2022-09-09T06:36:59;0.00;0.00;0.00
56495;PMS5003;42804;55.762;38.084;2022-09-09T06:39:50;1.00;0.00;0.00
56495;PMS5003;42804;55.762;38.084;2022-09-09T06:42:19;0.50;0.50;0.50
56495;PMS5003;42804;55.762;38.084;2022-09-09T06:44:49;0.00;0.00;0.00
56495;PMS5003;42804;55.762;38.084;2022-09-09T06:47:51;0.00;0.00;0.00
56495;PMS5003;42804;55.762;38.084;2022-09-09T06:50:22;0.50;0.00;0.00
56495;PMS5003;42804;55.762;38.084;2022-09-09T06:52:50;0.00;0.00;0.00
56495;PMS5003;42804;55.762;38.084;2022-09-09T06:55:21;0.00;0.00;0.00
56495;PMS5003;42804;55.762;38.084;2022-09-09T06:57:49;0.00;0.00;0.00
56495;PMS5003;42804;55.762;38.084;2022-09-09T07:00:21;0.00;0.00;0.00
56495;PMS5003;42804;55.762;38.084;2022-09-09T07:02:50;0.00;0.00;0.00
56495;PMS5003;42804;55.762;38.084;2022-09-09T07:05:19;0.00;0.00;0.00
56495;PMS5003;42804;55.762;38.084;2022-09-09T07:07:48;0.00;0.00;0.00
56495;PMS5003;42804;55.762;38.084;2022-09-09T07:10:18;0.00;0.00;0.00
56495;PMS5003;42804;55.762;38.084;2022-09-09T07:12:51;0.00;0.00;0.00
56495;PMS5003;42804;55.762;38.084;2022-09-09T07:15:22;0.50;0.50;0.00
56495;PMS5003;42804;55.762;38.084;2022-09-09T07:17:52;0.00;0.00;0.00
56495;PMS5003;42804;55.762;38.084;2022-09-09T07:20:21;0.00;0.00;0.00
56495;PMS5003;42804;55.762;38.084;2022-09-09T07:22:50;0.50;0.00;0.00
56495;PMS5003;42804;55.762;38.084;2022-09-09T07:25:18;0.00;0.00;0.00
56495;PMS5003;42804;55.762;38.084;2022-09-09T07:27:47;1.00;0.00;0.00
56495;PMS5003;42804;55.762;38.084;2022-09-09T07:30:17;0.00;0.00;0.00
56495;PMS5003;42804;55.762;38.084;2022-09-09T07:32:53;0.00;0.00;0.00
56495;PMS5003;42804;55.762;38.084;2022-09-09T07:35:24;0.00;0.00;0.00
56495;PMS5003;42804;55.762;38.084;2022-09-09T07:37:53;0.00;0.00;0.00
56495;PMS5003;42804;55.762;38.084;2022-09-09T07:40:22;0.00;0.00;0.00
56495;PMS5003;42804;55.762;38.084;2022-09-09T07:42:50;0.00;0.00;0.00
56495;PMS5003;42804;55.762;38.084;2022-09-09T07:45:20;0.00;0.00;0.00
56495;PMS5003;42804;55.762;38.084;2022-09-09T07:47:49;0.00;0.00;0.00
56495;PMS5003;42804;55.762;38.084;2022-09-09T07:50:22;0.00;0.00;0.00
56495;PMS5003;42804;55.762;38.084;2022-09-09T07:52:50;0.00;0.00;0.00
56495;PMS5003;42804;55.762;38.084;2022-09-09T07:55:19;0.00;0.00;0.00
56495;PMS5003;42804;55.762;38.084;2022-09-09T07:57:48;0.00;0.00;0.00
56495;PMS5003;42804;55.762;38.084;2022-09-09T08:00:17;0.00;0.00;0.00
56495;PMS5003;42804;55.762;38.084;2022-09-09T08:02:52;0.00;0.00;0.00
56495;PMS5003;42804;55.762;38.084;2022-09-09T08:05:22;0.00;0.00;0.00
56495;PMS5003;42804;55.762;38.084;2022-09-09T08:07:50;0.00;0.00;0.00
56495;PMS5003;42804;55.762;38.084;2022-09-09T08:10:18;0.00;0.00;0.00
56495;PMS5003;42804;55.762;38.084;2022-09-09T08:12:48;0.00;0.00;0.00
56495;PMS5003;42804;55.762;38.084;2022-09-09T08:15:36;0.50;0.00;0.00
56495;PMS5003;42804;55.762;38.084;2022-09-09T08:18:06;0.00;0.00;0.00
56495;PMS5003;42804;55.762;38.084;2022-09-09T08:20:36;0.00;0.00;0.00
56495;PMS5003;42804;55.762;38.084;2022-09-09T08:23:05;0.00;0.00;0.00
56495;PMS5003;42804;55.762;38.084;2022-09-09T08:25:34;0.00;0.00;0.00
56495;PMS5003;42804;55.762;38.084;2022-09-09T08:28:03;0.00;0.00;0.00
56495;PMS5003;42804;55.762;38.084;2022-09-09T08:30:31;1.00;0.00;0.00
56495;PMS5003;42804;55.762;38.084;2022-09-09T08:32:59;1.00;0.25;0.00
56495;PMS5003;42804;55.762;38.084;2022-09-09T08:35:29;0.00;0.00;0.00
56495;PMS5003;42804;55.762;38.084;2022-09-09T08:38:00;0.00;0.00;0.00
56495;PMS5003;42804;55.762;38.084;2022-09-09T08:40:36;0.00;0.00;0.00
56495;PMS5003;42804;55.762;38.084;2022-09-09T08:43:09;0.00;0.00;0.00
56495;PMS5003;42804;55.762;38.084;2022-09-09T08:45:41;0.50;0.25;0.00
56495;PMS5003;42804;55.762;38.084;2022-09-09T08:48:19;0.00;0.00;0.00
56495;PMS5003;42804;55.762;38.084;2022-09-09T08:50:53;0.00;0.00;0.00
56495;PMS5003;42804;55.762;38.084;2022-09-09T08:53:34;0.00;0.00;0.00
56495;PMS5003;42804;55.762;38.084;2022-09-09T08:56:08;0.00;0.00;0.00
56495;PMS5003;42804;55.762;38.084;2022-09-09T08:58:46;0.00;0.00;0.00
56495;PMS5003;42804;55.762;38.084;2022-09-09T09:04:14;0.00;0.00;0.00
56495;PMS5003;42804;55.762;38.084;2022-09-09T09:06:52;0.00;0.00;0.00
56495;PMS5003;42804;55.762;38.084;2022-09-09T09:09:23;1.00;1.00;0.50
56495;PMS5003;42804;55.762;38.084;2022-09-09T09:11:57;0.00;0.00;0.00
56495;PMS5003;42804;55.762;38.084;2022-09-09T09:14:33;0.00;0.00;0.00
56495;PMS5003;42804;55.762;38.084;2022-09-09T09:17:06;1.00;1.00;0.25
56495;PMS5003;42804;55.762;38.084;2022-09-09T09:19:38;0.00;0.00;0.00
56495;PMS5003;42804;55.762;38.084;2022-09-09T09:22:14;0.75;0.00;0.00
56495;PMS5003;42804;55.762;38.084;2022-09-09T09:24:45;1.00;1.00;0.00
56495;PMS5003;42804;55.762;38.084;2022-09-09T09:27:21;1.00;1.00;0.00
56495;PMS5003;42804;55.762;38.084;2022-09-09T09:29:53;1.00;1.00;1.00
56495;PMS5003;42804;55.762;38.084;2022-09-09T09:32:48;2.00;1.00;0.00
56495;PMS5003;42804;55.762;38.084;2022-09-09T09:35:18;1.00;1.00;1.00
56495;PMS5003;42804;55.762;38.084;2022-09-09T09:37:48;1.00;1.00;0.00
56495;PMS5003;42804;55.762;38.084;2022-09-09T09:40:37;1.75;1.50;0.50
56495;PMS5003;42804;55.762;38.084;2022-09-09T09:43:18;0.75;0.75;0.00
56495;PMS5003;42804;55.762;38.084;2022-09-09T09:45:48;1.50;1.25;1.00
56495;PMS5003;42804;55.762;38.084;2022-09-09T09:48:36;1.00;0.00;0.00
56495;PMS5003;42804;55.762;38.084;2022-09-09T09:51:07;0.00;0.00;0.00
56495;PMS5003;42804;55.762;38.084;2022-09-09T09:53:39;0.20;0.20;0.00
56495;PMS5003;42804;55.762;38.084;2022-09-09T09:56:10;1.00;1.00;0.00
56495;PMS5003;42804;55.762;38.084;2022-09-09T09:58:47;0.25;0.25;0.00
56495;PMS5003;42804;55.762;38.084;2022-09-09T10:01:20;0.00;0.00;0.00
56495;PMS5003;42804;55.762;38.084;2022-09-09T10:03:51;1.00;0.00;0.00
56495;PMS5003;42804;55.762;38.084;2022-09-09T10:06:28;1.00;1.00;0.00
56495;PMS5003;42804;55.762;38.084;2022-09-09T10:08:58;0.50;0.00;0.00
56495;PMS5003;42804;55.762;38.084;2022-09-09T10:11:30;1.00;1.00;0.00
56495;PMS5003;42804;55.762;38.084;2022-09-09T10:14:04;2.00;1.00;0.50
56495;PMS5003;42804;55.762;38.084;2022-09-09T10:16:37;0.00;0.00;0.00
56495;PMS5003;42804;55.762;38.084;2022-09-09T10:19:09;1.00;1.00;0.00
56495;PMS5003;42804;55.762;38.084;2022-09-09T10:21:43;0.00;0.00;0.00
56495;PMS5003;42804;55.762;38.084;2022-09-09T10:24:31;0.00;0.00;0.00
56495;PMS5003;42804;55.762;38.084;2022-09-09T10:27:03;1.00;0.00;0.00
56495;PMS5003;42804;55.762;38.084;2022-09-09T10:29:38;0.00;0.00;0.00
56495;PMS5003;42804;55.762;38.084;2022-09-09T10:32:16;0.00;0.00;0.00
56495;PMS5003;42804;55.762;38.084;2022-09-09T10:34:55;0.00;0.00;0.00
56495;PMS5003;42804;55.762;38.084;2022-09-09T10:40:15;0.50;0.00;0.00
56495;PMS5003;42804;55.762;38.084;2022-09-09T10:42:48;0.00;0.00;0.00
56495;PMS5003;42804;55.762;38.084;2022-09-09T10:45:17;0.00;0.00;0.00
56495;PMS5003;42804;55.762;38.084;2022-09-09T10:47:53;0.00;0.00;0.00
56495;PMS5003;42804;55.762;38.084;2022-09-09T10:50:35;0.00;0.00;0.00
56495;PMS5003;42804;55.762;38.084;2022-09-09T10:53:31;1.00;1.00;0.00
56495;PMS5003;42804;55.762;38.084;2022-09-09T10:56:06;0.00;0.00;0.00
56495;PMS5003;42804;55.762;38.084;2022-09-09T10:58:37;1.00;1.00;0.00
56495;PMS5003;42804;55.762;38.084;2022-09-09T11:01:08;0.00;0.00;0.00
56495;PMS5003;42804;55.762;38.084;2022-09-09T11:03:38;2.00;1.00;0.00
56495;PMS5003;42804;55.762;38.084;2022-09-09T11:06:09;0.00;0.00;0.00
56495;PMS5003;42804;55.762;38.084;2022-09-09T11:08:41;0.00;0.00;0.00
56495;PMS5003;42804;55.762;38.084;2022-09-09T11:11:12;0.50;0.50;0.00
56495;PMS5003;42804;55.762;38.084;2022-09-09T11:13:44;0.00;0.00;0.00
56495;PMS5003;42804;55.762;38.084;2022-09-09T11:16:17;1.00;0.00;0.00
56495;PMS5003;42804;55.762;38.084;2022-09-09T11:18:48;0.00;0.00;0.00
56495;PMS5003;42804;55.762;38.084;2022-09-09T11:21:19;0.00;0.00;0.00
56495;PMS5003;42804;55.762;38.084;2022-09-09T11:23:50;0.75;0.00;0.00
56495;PMS5003;42804;55.762;38.084;2022-09-09T11:26:24;0.00;0.00;0.00
56495;PMS5003;42804;55.762;38.084;2022-09-09T11:28:58;1.25;1.25;0.00
56495;PMS5003;42804;55.762;38.084;2022-09-09T11:31:35;0.25;0.25;0.00
56495;PMS5003;42804;55.762;38.084;2022-09-09T11:34:20;0.00;0.00;0.00
56495;PMS5003;42804;55.762;38.084;2022-09-09T11:36:56;1.50;0.75;0.00
56495;PMS5003;42804;55.762;38.084;2022-09-09T11:39:42;0.00;0.00;0.00
56495;PMS5003;42804;55.762;38.084;2022-09-09T11:42:17;0.00;0.00;0.00
56495;PMS5003;42804;55.762;38.084;2022-09-09T11:44:46;0.00;0.00;0.00
56495;PMS5003;42804;55.762;38.084;2022-09-09T11:47:16;0.00;0.00;0.00
56495;PMS5003;42804;55.762;38.084;2022-09-09T11:49:47;0.00;0.00;0.00
56495;PMS5003;42804;55.762;38.084;2022-09-09T11:52:20;0.00;0.00;0.00
56495;PMS5003;42804;55.762;38.084;2022-09-09T11:54:49;0.75;0.00;0.00
56495;PMS5003;42804;55.762;38.084;2022-09-09T11:57:26;0.75;0.00;0.00
56495;PMS5003;42804;55.762;38.084;2022-09-09T11:59:58;1.00;1.00;0.00
56495;PMS5003;42804;55.762;38.084;2022-09-09T12:02:47;1.00;0.00;0.00
56495;PMS5003;42804;55.762;38.084;2022-09-09T12:05:19;1.00;1.00;0.00
56495;PMS5003;42804;55.762;38.084;2022-09-09T12:07:50;0.00;0.00;0.00
56495;PMS5003;42804;55.762;38.084;2022-09-09T12:10:23;0.00;0.00;0.00
56495;PMS5003;42804;55.762;38.084;2022-09-09T12:13:06;1.00;1.00;0.50
56495;PMS5003;42804;55.762;38.084;2022-09-09T12:15:36;1.25;1.00;0.00
56495;PMS5003;42804;55.762;38.084;2022-09-09T12:18:14;2.00;1.50;0.00
56495;PMS5003;42804;55.762;38.084;2022-09-09T12:20:50;3.00;2.25;1.00
56495;PMS5003;42804;55.762;38.084;2022-09-09T12:23:24;1.00;1.00;0.00
56495;PMS5003;42804;55.762;38.084;2022-09-09T12:26:05;1.00;1.00;0.50
56495;PMS5003;42804;55.762;38.084;2022-09-09T12:28:48;2.00;1.00;1.00
56495;PMS5003;42804;55.762;38.084;2022-09-09T12:31:20;3.50;2.75;2.00
56495;PMS5003;42804;55.762;38.084;2022-09-09T12:33:50;0.00;0.00;0.00
56495;PMS5003;42804;55.762;38.084;2022-09-09T12:36:20;0.25;0.25;0.00
56495;PMS5003;42804;55.762;38.084;2022-09-09T12:41:50;0.00;0.00;0.00
56495;PMS5003;42804;55.762;38.084;2022-09-09T12:44:21;0.00;0.00;0.00
56495;PMS5003;42804;55.762;38.084;2022-09-09T12:46:49;1.75;1.50;1.00
56495;PMS5003;42804;55.762;38.084;2022-09-09T12:49:25;2.00;1.50;1.25
56495;PMS5003;42804;55.762;38.084;2022-09-09T12:51:54;2.50;1.00;0.25
56495;PMS5003;42804;55.762;38.084;2022-09-09T12:54:24;1.00;1.00;0.00
56495;PMS5003;42804;55.762;38.084;2022-09-09T12:56:52;1.25;1.00;0.25
56495;PMS5003;42804;55.762;38.084;2022-09-09T12:59:23;1.00;1.00;0.00
56495;PMS5003;42804;55.762;38.084;2022-09-09T13:01:55;2.50;1.00;0.00
56495;PMS5003;42804;55.762;38.084;2022-09-09T13:04:24;1.00;1.00;0.75
56495;PMS5003;42804;55.762;38.084;2022-09-09T13:06:52;0.00;0.00;0.00
56495;PMS5003;42804;55.762;38.084;2022-09-09T13:09:20;1.00;1.00;0.00
56495;PMS5003;42804;55.762;38.084;2022-09-09T13:11:48;0.25;0.25;0.00
56495;PMS5003;42804;55.762;38.084;2022-09-09T13:14:18;1.00;1.00;0.75
56495;PMS5003;42804;55.762;38.084;2022-09-09T13:16:56;0.00;0.00;0.00
56495;PMS5003;42804;55.762;38.084;2022-09-09T13:19:24;0.00;0.00;0.00
56495;PMS5003;42804;55.762;38.084;2022-09-09T13:21:55;0.00;0.00;0.00
56495;PMS5003;42804;55.762;38.084;2022-09-09T13:24:25;0.00;0.00;0.00
56495;PMS5003;42804;55.762;38.084;2022-09-09T13:26:55;0.75;0.00;0.00
56495;PMS5003;42804;55.762;38.084;2022-09-09T13:29:24;1.00;1.00;0.00
56495;PMS5003;42804;55.762;38.084;2022-09-09T13:31:52;1.00;1.00;0.00
56495;PMS5003;42804;55.762;38.084;2022-09-09T13:34:27;0.00;0.00;0.00
56495;PMS5003;42804;55.762;38.084;2022-09-09T13:36:57;0.00;0.00;0.00
56495;PMS5003;42804;55.762;38.084;2022-09-09T13:39:28;0.50;0.50;0.00
56495;PMS5003;42804;55.762;38.084;2022-09-09T13:41:56;2.00;0.00;0.00
56495;PMS5003;42804;55.762;38.084;2022-09-09T13:44:26;0.75;0.75;0.50
56495;PMS5003;42804;55.762;38.084;2022-09-09T13:47:01;1.00;1.00;0.00
56495;PMS5003;42804;55.762;38.084;2022-09-09T13:49:37;1.00;1.00;1.00
56495;PMS5003;42804;55.762;38.084;2022-09-09T13:52:08;1.50;1.00;1.00
56495;PMS5003;42804;55.762;38.084;2022-09-09T13:54:37;3.00;2.25;1.00
56495;PMS5003;42804;55.762;38.084;2022-09-09T13:57:05;1.00;1.00;1.00
56495;PMS5003;42804;55.762;38.084;2022-09-09T13:59:33;2.75;2.25;1.00
56495;PMS5003;42804;55.762;38.084;2022-09-09T14:02:23;8.00;6.50;3.00
56495;PMS5003;42804;55.762;38.084;2022-09-09T14:04:54;5.75;4.00;2.00
56495;PMS5003;42804;55.762;38.084;2022-09-09T14:07:22;5.25;2.25;1.00
56495;PMS5003;42804;55.762;38.084;2022-09-09T14:09:51;1.00;1.00;0.50
56495;PMS5003;42804;55.762;38.084;2022-09-09T14:12:20;1.25;1.00;1.00
56495;PMS5003;42804;55.762;38.084;2022-09-09T14:14:48;0.50;0.25;0.00
56495;PMS5003;42804;55.762;38.084;2022-09-09T14:17:16;1.00;0.50;0.00
56495;PMS5003;42804;55.762;38.084;2022-09-09T14:19:47;0.00;0.00;0.00
56495;PMS5003;42804;55.762;38.084;2022-09-09T14:22:16;0.50;0.50;0.00
56495;PMS5003;42804;55.762;38.084;2022-09-09T14:24:45;0.00;0.00;0.00
56495;PMS5003;42804;55.762;38.084;2022-09-09T14:27:13;0.00;0.00;0.00
56495;PMS5003;42804;55.762;38.084;2022-09-09T14:29:42;0.00;0.00;0.00
56495;PMS5003;42804;55.762;38.084;2022-09-09T14:32:10;0.50;0.50;0.00
56495;PMS5003;42804;55.762;38.084;2022-09-09T14:34:39;1.00;0.75;0.00
56495;PMS5003;42804;55.762;38.084;2022-09-09T14:37:07;2.00;1.00;0.00
56495;PMS5003;42804;55.762;38.084;2022-09-09T14:39:36;0.50;0.50;0.00
56495;PMS5003;42804;55.762;38.084;2022-09-09T14:42:05;3.50;3.00;1.25
56495;PMS5003;42804;55.762;38.084;2022-09-09T14:44:33;1.00;1.00;0.00
56495;PMS5003;42804;55.762;38.084;2022-09-09T14:47:02;2.00;0.00;0.00
56495;PMS5003;42804;55.762;38.084;2022-09-09T14:49:30;0.75;0.25;0.00